createdAt,value
2018-07-20T00:01:52.962Z,98866.50
2018-07-20T00:04:21.369Z,98869.36
2018-07-20T00:06:49.714Z,98863.91
2018-07-20T00:09:18.132Z,98866.50
2018-07-20T00:11:46.458Z,98864.85
2018-07-20T00:14:14.730Z,98866.55
2018-07-20T00:16:43.088Z,98866.86
2018-07-20T00:19:11.439Z,98863.86
2018-07-20T00:21:39.745Z,98864.84
2018-07-20T00:24:08.040Z,98861.00
2018-07-20T00:26:36.370Z,98864.99
2018-07-20T00:29:04.725Z,98858.10
2018-07-20T00:31:33.043Z,98866.77
2018-07-20T00:34:01.344Z,98870.63
2018-07-20T00:36:29.786Z,98866.33
2018-07-20T00:38:58.096Z,98855.61
2018-07-20T00:41:26.478Z,98856.10
2018-07-20T00:43:54.858Z,98857.47
2018-07-20T00:46:23.174Z,98859.97
2018-07-20T00:48:51.518Z,98858.96
2018-07-20T00:51:19.993Z,98855.78
2018-07-20T00:53:48.562Z,98850.39
2018-07-20T00:56:16.950Z,98848.89
2018-07-20T00:58:45.352Z,98843.34
2018-07-20T01:01:13.898Z,98844.19
2018-07-20T01:03:42.183Z,98846.86
2018-07-20T01:06:10.534Z,98843.34
2018-07-20T01:08:38.824Z,98835.61
2018-07-20T01:11:07.472Z,98833.25
2018-07-20T01:13:35.737Z,98837.10
2018-07-20T01:16:04.106Z,98833.67
2018-07-20T01:18:32.437Z,98836.87
2018-07-20T01:21:00.955Z,98834.23
2018-07-20T01:23:29.268Z,98832.06
2018-07-20T01:25:57.668Z,98832.75
2018-07-20T01:28:25.945Z,98834.77
2018-07-20T01:30:54.278Z,98842.81
2018-07-20T01:33:22.546Z,98835.86
2018-07-20T01:35:51.005Z,98839.34
2018-07-20T01:38:19.372Z,98837.46
2018-07-20T01:40:47.651Z,98837.33
2018-07-20T01:43:15.988Z,98838.41
2018-07-20T01:45:44.295Z,98832.41
2018-07-20T01:48:12.779Z,98826.36
2018-07-20T01:50:41.093Z,98825.02
2018-07-20T01:53:09.716Z,98829.61
2018-07-20T01:55:37.999Z,98830.15
2018-07-20T01:58:06.357Z,98829.14
2018-07-20T02:00:34.708Z,98827.26
2018-07-20T02:03:03.046Z,98826.54
2018-07-20T02:05:31.410Z,98827.59
2018-07-20T02:07:59.753Z,98838.50
2018-07-20T02:10:28.044Z,98829.83
2018-07-20T02:12:56.376Z,98828.64
2018-07-20T02:15:24.742Z,98832.17
2018-07-20T02:17:53.161Z,98826.30
2018-07-20T02:20:21.542Z,98824.05
2018-07-20T02:22:49.858Z,98824.83
2018-07-20T02:25:18.155Z,98818.71
2018-07-20T02:27:46.637Z,98817.75
2018-07-20T02:30:14.991Z,98822.66
2018-07-20T02:32:43.383Z,98817.25
2018-07-20T02:35:11.727Z,98812.71
2018-07-20T02:37:40.053Z,98809.82
2018-07-20T02:40:08.480Z,98803.50
2018-07-20T02:42:36.789Z,98812.41
2018-07-20T02:45:05.638Z,98806.34
2018-07-20T02:47:34.147Z,98800.55
2018-07-20T02:50:02.484Z,98805.93
2018-07-20T02:52:31.099Z,98797.09
2018-07-20T02:54:59.533Z,98802.77
2018-07-20T02:57:27.853Z,98800.48
2018-07-20T02:59:56.282Z,98799.66
2018-07-20T03:02:24.647Z,98797.48
2018-07-20T03:04:53.101Z,98801.52
2018-07-20T03:07:21.392Z,98807.34
2018-07-20T03:09:50.371Z,98803.86
2018-07-20T03:12:18.667Z,98805.51
2018-07-20T03:14:46.989Z,98797.28
2018-07-20T03:17:15.305Z,98794.20
2018-07-20T03:19:43.674Z,98805.30
2018-07-20T03:22:11.939Z,98801.12
2018-07-20T03:24:40.566Z,98797.31
2018-07-20T03:27:08.939Z,98796.39
2018-07-20T03:29:37.261Z,98795.27
2018-07-20T03:32:06.059Z,98793.12
2018-07-20T03:34:34.421Z,98797.14
2018-07-20T03:37:02.796Z,98791.88
2018-07-20T03:39:31.352Z,98796.97
2018-07-20T03:41:59.631Z,98792.72
2018-07-20T03:44:28.104Z,98793.03
2018-07-20T03:46:56.386Z,98799.55
2018-07-20T03:49:24.774Z,98797.41
2018-07-20T03:51:53.208Z,98787.77
2018-07-20T03:54:21.566Z,98793.65
2018-07-20T03:56:49.985Z,98787.23
2018-07-20T03:59:18.312Z,98789.22
2018-07-20T04:01:46.590Z,98790.33
2018-07-20T04:04:14.902Z,98793.14
2018-07-20T04:06:43.178Z,98786.18
2018-07-20T04:09:11.811Z,98788.39
2018-07-20T04:11:40.477Z,98788.58
2018-07-20T04:14:08.845Z,98786.80
2018-07-20T04:16:37.471Z,98784.50
2018-07-20T04:19:05.906Z,98781.53
2018-07-20T04:21:34.213Z,98783.75
2018-07-20T04:24:02.687Z,98779.71
2018-07-20T04:26:31.011Z,98786.16
2018-07-20T04:28:59.354Z,98785.91
2018-07-20T04:31:27.770Z,98781.20
2018-07-20T04:33:56.215Z,98780.59
2018-07-20T04:36:24.597Z,98777.58
2018-07-20T04:38:52.926Z,98778.47
2018-07-20T04:41:21.266Z,98779.98
2018-07-20T04:43:49.845Z,98777.17
2018-07-20T04:46:18.146Z,98777.04
2018-07-20T04:48:46.426Z,98771.69
2018-07-20T04:51:14.768Z,98772.42
2018-07-20T04:53:43.136Z,98770.20
2018-07-20T04:56:11.506Z,98769.38
2018-07-20T04:58:39.996Z,98767.52
2018-07-20T05:01:08.295Z,98767.38
2018-07-20T05:03:36.641Z,98760.97
2018-07-20T05:06:05.156Z,98766.32
2018-07-20T05:08:33.481Z,98759.59
2018-07-20T05:11:01.884Z,98758.05
2018-07-20T05:13:30.193Z,98753.14
2018-07-20T05:15:58.490Z,98755.11
2018-07-20T05:18:26.803Z,98753.71
2018-07-20T05:20:55.255Z,98752.02
2018-07-20T05:23:23.546Z,98743.02
2018-07-20T05:25:51.881Z,98737.75
2018-07-20T05:28:20.208Z,98747.47
2018-07-20T05:30:48.677Z,98741.30
2018-07-20T05:33:17.442Z,98740.56
2018-07-20T05:35:47.082Z,98738.30
2018-07-20T05:38:15.412Z,98735.84
2018-07-20T05:40:43.704Z,98735.90
2018-07-20T05:43:12.019Z,98731.64
2018-07-20T05:45:40.351Z,98732.52
2018-07-20T05:48:08.634Z,98727.81
2018-07-20T05:50:36.978Z,98729.56
2018-07-20T05:53:05.412Z,98728.22
2018-07-20T05:55:33.757Z,98725.12
2018-07-20T05:58:02.075Z,98731.41
2018-07-20T06:00:30.491Z,98723.47
2018-07-20T06:02:58.826Z,98720.83
2018-07-20T06:05:27.278Z,98724.31
2018-07-20T06:07:55.816Z,98712.50
2018-07-20T06:10:24.361Z,98712.66
2018-07-20T06:12:53.041Z,98713.87
2018-07-20T06:15:21.381Z,98712.73
2018-07-20T06:17:50.538Z,98713.18
2018-07-20T06:20:18.920Z,98717.80
2018-07-20T06:22:47.611Z,98714.52
2018-07-20T06:25:16.043Z,98714.27
2018-07-20T06:27:46.348Z,98720.16
2018-07-20T06:30:14.714Z,98710.00
2018-07-20T06:32:43.202Z,98720.50
2018-07-20T06:35:12.710Z,98716.91
2018-07-20T06:40:33.661Z,98712.49
2018-07-20T06:43:06.513Z,98712.11
2018-07-20T06:45:37.666Z,98712.55
2018-07-20T06:48:05.983Z,98712.08
2018-07-20T06:50:34.541Z,98714.09
2018-07-20T06:53:04.876Z,98714.20
2018-07-20T06:55:33.173Z,98717.38
2018-07-20T06:58:01.666Z,98714.77
2018-07-20T07:00:32.483Z,98713.05
2018-07-20T07:03:01.369Z,98715.72
2018-07-20T07:05:30.651Z,98715.15
2018-07-20T07:07:59.786Z,98715.83
2018-07-20T07:10:34.398Z,98716.00
2018-07-20T07:13:02.839Z,98723.66
2018-07-20T07:15:31.443Z,98721.36
2018-07-20T07:17:59.767Z,98707.94
2018-07-20T07:20:28.103Z,98717.12
2018-07-20T07:22:57.948Z,98710.78
2018-07-20T07:25:27.766Z,98711.20
2018-07-20T07:27:56.210Z,98715.11
2018-07-20T07:30:24.547Z,98725.12
2018-07-20T07:32:54.777Z,98719.81
2018-07-20T07:35:23.598Z,98715.33
2018-07-20T07:37:52.632Z,98709.77
2018-07-20T07:40:22.000Z,98708.83
2018-07-20T07:42:50.466Z,98713.41
2018-07-20T07:45:18.847Z,98708.59
2018-07-20T07:47:47.191Z,98704.52
2018-07-20T07:50:15.539Z,98703.34
2018-07-20T07:52:43.956Z,98701.44
2018-07-20T07:55:12.280Z,98701.22
2018-07-20T07:57:40.652Z,98695.50
2018-07-20T08:00:08.945Z,98695.47
2018-07-20T08:02:37.345Z,98682.92
2018-07-20T08:05:05.700Z,98689.50
2018-07-20T08:07:34.030Z,98692.57
2018-07-20T08:10:02.532Z,98686.34
2018-07-20T08:12:30.772Z,98686.38
2018-07-20T08:14:59.038Z,98686.45
2018-07-20T08:17:27.355Z,98686.73
2018-07-20T08:19:55.854Z,98683.12
2018-07-20T08:22:24.283Z,98678.65
2018-07-20T08:24:52.680Z,98687.42
2018-07-20T08:27:21.031Z,98678.81
2018-07-20T08:29:49.312Z,98683.84
2018-07-20T08:32:17.597Z,98683.25
2018-07-20T08:34:45.874Z,98683.25
2018-07-20T08:37:14.203Z,98681.27
2018-07-20T08:39:42.962Z,98679.12
2018-07-20T08:42:11.469Z,98669.11
2018-07-20T08:44:40.031Z,98671.95
2018-07-20T08:47:08.408Z,98669.89
2018-07-20T08:49:36.707Z,98669.52
2018-07-20T08:52:05.207Z,98672.55
2018-07-20T08:54:33.512Z,98665.00
2018-07-20T08:57:01.809Z,98664.06
2018-07-20T08:59:30.101Z,98657.11
2018-07-20T09:01:58.500Z,98650.44
2018-07-20T09:04:26.822Z,98651.30
2018-07-20T09:06:55.354Z,98653.31
2018-07-20T09:09:23.630Z,98651.34
2018-07-20T09:11:52.075Z,98646.92
2018-07-20T09:14:20.383Z,98645.13
2018-07-20T09:16:48.938Z,98647.86
2018-07-20T09:19:17.302Z,98646.86
2018-07-20T09:21:45.602Z,98640.69
2018-07-20T09:24:13.899Z,98630.00
2018-07-20T09:26:42.183Z,98636.39
2018-07-20T09:29:10.494Z,98633.96
2018-07-20T09:31:39.677Z,98625.84
2018-07-20T09:34:08.048Z,98628.94
2018-07-20T09:36:36.359Z,98623.52
2018-07-20T09:39:08.139Z,98622.88
2018-07-20T09:41:36.571Z,98621.57
2018-07-20T09:44:05.174Z,98611.00
2018-07-20T09:46:33.941Z,98613.55
2018-07-20T09:49:02.381Z,98614.14
2018-07-20T09:51:30.831Z,98610.47
2018-07-20T09:53:59.235Z,98617.19
2018-07-20T09:56:27.556Z,98620.17
2018-07-20T09:58:55.891Z,98617.30
2018-07-20T10:01:24.325Z,98617.98
2018-07-20T10:03:52.780Z,98613.63
2018-07-20T10:06:21.129Z,98619.53
2018-07-20T10:08:49.587Z,98619.44
2018-07-20T10:11:17.890Z,98615.85
2018-07-20T10:13:46.232Z,98617.41
2018-07-20T10:16:14.530Z,98607.48
2018-07-20T10:18:42.867Z,98606.75
2018-07-20T10:21:11.185Z,98603.98
2018-07-20T10:23:39.503Z,98602.52
2018-07-20T10:26:07.850Z,98604.56
2018-07-20T10:28:36.662Z,98594.11
2018-07-20T10:31:05.304Z,98601.19
2018-07-20T10:33:33.649Z,98597.73
2018-07-20T10:36:01.968Z,98600.97
2018-07-20T10:38:30.318Z,98599.16
2018-07-20T10:40:58.622Z,98600.53
2018-07-20T10:43:27.243Z,98587.19
2018-07-20T10:45:55.598Z,98589.00
2018-07-20T10:48:24.223Z,98585.38
2018-07-20T10:50:54.700Z,98592.91
2018-07-20T10:53:23.795Z,98593.27
2018-07-20T10:55:52.393Z,98598.28
2018-07-20T10:58:20.908Z,98589.30
2018-07-20T11:00:49.573Z,98588.64
2018-07-20T11:03:18.584Z,98592.30
2018-07-20T11:05:47.192Z,98584.70
2018-07-20T11:08:17.286Z,98589.95
2018-07-20T11:10:46.164Z,98584.11
2018-07-20T11:13:14.616Z,98579.36
2018-07-20T11:15:43.981Z,98578.06
2018-07-20T11:18:14.949Z,98569.08
2018-07-20T11:20:43.552Z,98575.33
2018-07-20T11:23:12.131Z,98573.25
2018-07-20T11:25:41.607Z,98574.08
2018-07-20T11:28:10.076Z,98582.81
2018-07-20T11:30:38.395Z,98571.41
2018-07-20T11:33:06.810Z,98572.31
2018-07-20T11:35:36.326Z,98567.85
2018-07-20T11:38:04.733Z,98558.66
2018-07-20T11:40:35.194Z,98564.95
2018-07-20T11:43:03.826Z,98558.89
2018-07-20T11:45:32.170Z,98561.03
2018-07-20T11:48:00.664Z,98555.95
2018-07-20T11:50:29.801Z,98559.23
2018-07-20T11:52:58.473Z,98556.27
2018-07-20T11:55:26.771Z,98558.02
2018-07-20T11:57:55.123Z,98553.94
2018-07-20T12:00:23.731Z,98550.75
2018-07-20T12:02:52.424Z,98552.84
2018-07-20T12:05:20.931Z,98547.05
2018-07-20T12:07:49.353Z,98548.45
2018-07-20T12:10:17.886Z,98544.84
2018-07-20T12:12:46.550Z,98539.44
2018-07-20T12:15:14.889Z,98536.38
2018-07-20T12:17:44.965Z,98525.88
2018-07-20T12:20:13.375Z,98527.78
2018-07-20T12:22:41.695Z,98518.85
2018-07-20T12:25:10.090Z,98510.78
2018-07-20T12:27:38.461Z,98513.64
2018-07-20T12:30:06.846Z,98515.39
2018-07-20T12:32:35.234Z,98505.45
2018-07-20T12:35:03.781Z,98500.66
2018-07-20T12:37:32.158Z,98493.94
2018-07-20T12:40:00.571Z,98494.48
2018-07-20T12:42:28.900Z,98492.27
2018-07-20T12:44:57.226Z,98502.99
2018-07-20T12:47:25.539Z,98497.81
2018-07-20T12:49:53.911Z,98493.03
2018-07-20T12:52:22.203Z,98493.11
2018-07-20T12:54:50.599Z,98493.14
2018-07-20T12:57:18.895Z,98493.68
2018-07-20T12:59:47.538Z,98491.42
2018-07-20T13:02:16.154Z,98487.19
2018-07-20T13:04:44.491Z,98485.85
2018-07-20T13:07:12.927Z,98486.11
2018-07-20T13:09:41.258Z,98472.69
2018-07-20T13:12:09.608Z,98483.02
2018-07-20T13:14:37.902Z,98474.84
2018-07-20T13:17:06.225Z,98470.44
2018-07-20T13:19:34.670Z,98459.36
2018-07-20T13:22:02.950Z,98460.48
2018-07-20T13:24:31.293Z,98464.81
2018-07-20T13:26:59.601Z,98463.83
2018-07-20T13:29:27.954Z,98462.12
2018-07-20T13:31:56.394Z,98466.95
2018-07-20T13:34:24.758Z,98456.88
2018-07-20T13:36:53.091Z,98461.03
2018-07-20T13:39:21.387Z,98456.11
2018-07-20T13:41:49.791Z,98457.59
2018-07-20T13:44:18.107Z,98454.48
2018-07-20T13:46:46.494Z,98445.31
2018-07-20T13:49:14.870Z,98444.42
2018-07-20T13:51:43.290Z,98444.75
2018-07-20T13:54:11.594Z,98440.00
2018-07-20T13:56:39.963Z,98436.34
2018-07-20T13:59:08.284Z,98440.19
2018-07-20T14:01:36.620Z,98436.48
2018-07-20T14:04:05.126Z,98436.20
2018-07-20T14:06:33.459Z,98432.13
2018-07-20T14:09:01.841Z,98428.30
2018-07-20T14:11:30.237Z,98426.45
2018-07-20T14:13:58.626Z,98423.27
2018-07-20T14:16:26.980Z,98422.25
2018-07-20T14:18:55.409Z,98416.23
2018-07-20T14:21:23.793Z,98420.59
2018-07-20T14:23:52.118Z,98421.66
2018-07-20T14:26:20.530Z,98412.03
2018-07-20T14:28:48.912Z,98416.58
2018-07-20T14:31:17.396Z,98410.67
2018-07-20T14:33:45.778Z,98406.66
2018-07-20T14:36:14.507Z,98407.48
2018-07-20T14:38:42.799Z,98412.31
2018-07-20T14:41:11.170Z,98402.23
2018-07-20T14:43:39.455Z,98396.10
2018-07-20T14:46:07.952Z,98396.84
2018-07-20T14:48:36.362Z,98389.56
2018-07-20T14:51:04.852Z,98396.33
2018-07-20T14:53:33.428Z,98388.19
2018-07-20T14:56:01.802Z,98382.44
2018-07-20T14:58:30.235Z,98381.89
2018-07-20T15:00:58.599Z,98378.25
2018-07-20T15:03:26.938Z,98377.79
2018-07-20T15:05:55.349Z,98380.25
2018-07-20T15:08:23.618Z,98376.95
2018-07-20T15:10:51.967Z,98368.65
2018-07-20T15:13:20.346Z,98373.71
2018-07-20T15:15:48.708Z,98372.95
2018-07-20T15:18:17.388Z,98368.71
2018-07-20T15:20:45.806Z,98372.05
2018-07-20T15:23:14.347Z,98367.91
2018-07-20T15:25:42.748Z,98365.98
2018-07-20T15:28:11.269Z,98359.33
2018-07-20T15:30:39.575Z,98359.99
2018-07-20T15:33:08.023Z,98354.86
2018-07-20T15:35:36.765Z,98350.20
2018-07-20T15:38:05.188Z,98347.83
2018-07-20T15:40:33.574Z,98348.83
2018-07-20T15:43:01.902Z,98348.75
2018-07-20T15:45:30.242Z,98354.19
2018-07-20T15:47:58.588Z,98355.59
2018-07-20T15:50:26.901Z,98349.91
2018-07-20T15:53:36.283Z,98348.24
2018-07-20T15:55:23.685Z,98347.92
2018-07-20T15:57:52.842Z,98343.66
2018-07-20T16:00:21.208Z,98343.20
2018-07-20T16:02:49.599Z,98344.89
2018-07-20T16:05:17.959Z,98345.91
2018-07-20T16:07:46.372Z,98344.55
2018-07-20T16:10:14.798Z,98350.74
2018-07-20T16:12:43.188Z,98346.92
2018-07-20T16:15:11.952Z,98341.55
2018-07-20T16:17:40.387Z,98347.59
2018-07-20T16:20:08.768Z,98347.37
2018-07-20T16:22:37.110Z,98347.75
2018-07-20T16:25:05.440Z,98346.47
2018-07-20T16:27:33.819Z,98340.41
2018-07-20T16:30:02.342Z,98346.99
2018-07-20T16:32:30.686Z,98342.35
2018-07-20T16:34:59.114Z,98342.66
2018-07-20T16:37:27.437Z,98338.86
2018-07-20T16:39:55.750Z,98333.91
2018-07-20T16:42:24.171Z,98327.04
2018-07-20T16:44:52.441Z,98329.48
2018-07-20T16:47:20.962Z,98324.30
2018-07-20T16:49:49.322Z,98321.22
2018-07-20T16:52:17.728Z,98322.11
2018-07-20T16:54:46.235Z,98316.97
2018-07-20T16:57:14.741Z,98315.95
2018-07-20T16:59:43.482Z,98316.16
2018-07-20T17:02:11.837Z,98304.77
2018-07-20T17:04:40.342Z,98303.77
2018-07-20T17:07:08.793Z,98304.89
2018-07-20T17:09:37.144Z,98303.25
2018-07-20T17:12:05.988Z,98300.59
2018-07-20T17:14:34.335Z,98300.44
2018-07-20T17:17:02.626Z,98304.34
2018-07-20T17:19:31.314Z,98293.70
2018-07-20T17:21:59.647Z,98293.23
2018-07-20T17:24:28.770Z,98289.95
2018-07-20T17:26:57.355Z,98287.56
2018-07-20T17:29:25.932Z,98287.75
2018-07-20T17:31:54.335Z,98281.53
2018-07-20T17:34:22.854Z,98285.89
2018-07-20T17:36:51.189Z,98281.89
2018-07-20T17:39:30.381Z,98280.05
2018-07-20T17:41:59.976Z,98284.17
2018-07-20T17:44:29.499Z,98280.88
2018-07-20T17:46:57.808Z,98273.22
2018-07-20T17:49:26.151Z,98272.67
2018-07-20T17:51:54.484Z,98273.22
2018-07-20T17:54:23.052Z,98278.13
2018-07-20T17:56:51.579Z,98281.53
2018-07-20T17:59:20.679Z,98277.41
2018-07-20T18:01:49.031Z,98272.45
2018-07-20T18:04:17.459Z,98278.14
2018-07-20T18:06:45.927Z,98267.62
2018-07-20T18:09:14.324Z,98273.44
2018-07-20T18:11:43.256Z,98278.41
2018-07-20T18:14:11.843Z,98276.88
2018-07-20T18:16:40.432Z,98275.89
2018-07-20T18:19:08.888Z,98285.80
2018-07-20T18:21:37.687Z,98279.17
2018-07-20T18:24:06.169Z,98279.94
2018-07-20T18:26:34.535Z,98273.45
2018-07-20T18:29:02.951Z,98273.70
2018-07-20T18:31:31.251Z,98279.25
2018-07-20T18:34:00.350Z,98278.55
2018-07-20T18:36:28.755Z,98278.75
2018-07-20T18:38:57.137Z,98283.41
2018-07-20T18:41:25.706Z,98280.53
2018-07-20T18:43:55.862Z,98286.27
2018-07-20T18:46:24.268Z,98283.80
2018-07-20T18:48:52.644Z,98287.50
2018-07-20T18:51:21.046Z,98291.60
2018-07-20T18:53:49.613Z,98294.98
2018-07-20T18:56:18.758Z,98291.16
2018-07-20T18:58:47.192Z,98292.50
2018-07-20T19:01:15.742Z,98292.52
2018-07-20T19:03:44.143Z,98302.89
2018-07-20T19:06:12.626Z,98308.38
2018-07-20T19:08:41.126Z,98305.06
2018-07-20T19:11:09.886Z,98302.96
2018-07-20T19:13:38.570Z,98310.59
2018-07-20T19:16:06.981Z,98311.17
2018-07-20T19:18:36.342Z,98316.52
2018-07-20T19:21:04.870Z,98318.48
2018-07-20T19:23:33.300Z,98321.09
2018-07-20T19:26:01.639Z,98327.73
2018-07-20T19:28:29.962Z,98332.78
2018-07-20T19:30:58.355Z,98336.30
2018-07-20T19:33:26.675Z,98343.16
2018-07-20T19:35:55.056Z,98341.20
2018-07-20T19:38:23.422Z,98343.80
2018-07-20T19:40:51.815Z,98347.19
2018-07-20T19:43:20.450Z,98347.67
2018-07-20T19:45:48.895Z,98352.78
2018-07-20T19:48:17.287Z,98346.35
2018-07-20T19:50:45.643Z,98348.38
2018-07-20T19:53:13.936Z,98343.54
2018-07-20T19:55:42.250Z,98348.03
2018-07-20T19:58:10.623Z,98358.47
2018-07-20T20:00:38.962Z,98358.09
2018-07-20T20:03:07.294Z,98364.23
2018-07-20T20:05:35.631Z,98361.00
2018-07-20T20:08:04.098Z,98366.86
2018-07-20T20:10:32.488Z,98369.25
2018-07-20T20:13:00.788Z,98368.61
2018-07-20T20:15:29.165Z,98366.44
2018-07-20T20:17:57.476Z,98360.39
2018-07-20T20:20:26.781Z,98369.55
2018-07-20T20:23:14.997Z,98365.98
2018-07-20T20:25:43.349Z,98365.14
2018-07-20T20:28:11.669Z,98366.62
2018-07-20T20:30:40.313Z,98372.08
2018-07-20T20:33:08.650Z,98371.35
2018-07-20T20:35:37.269Z,98367.29
2018-07-20T20:38:05.589Z,98375.14
2018-07-20T20:40:33.973Z,98370.78
2018-07-20T20:43:02.305Z,98369.95
2018-07-20T20:45:30.628Z,98370.81
2018-07-20T20:47:58.948Z,98368.58
2018-07-20T20:50:27.458Z,98365.96
2018-07-20T20:52:55.819Z,98365.28
2018-07-20T20:55:24.145Z,98363.61
2018-07-20T20:57:52.553Z,98353.73
2018-07-20T21:00:20.860Z,98358.05
2018-07-20T21:02:49.214Z,98357.75
2018-07-20T21:05:17.510Z,98352.33
2018-07-20T21:07:46.097Z,98349.28
2018-07-20T21:10:14.526Z,98349.39
2018-07-20T21:12:42.816Z,98349.91
2018-07-20T21:15:11.210Z,98357.50
2018-07-20T21:17:39.550Z,98351.25
2018-07-20T21:20:07.895Z,98344.30
2018-07-20T21:22:36.342Z,98348.95
2018-07-20T21:25:05.066Z,98345.30
2018-07-20T21:27:33.397Z,98339.47
2018-07-20T21:30:01.757Z,98342.45
2018-07-20T21:32:30.162Z,98337.17
2018-07-20T21:34:58.553Z,98341.29
2018-07-20T21:37:27.011Z,98346.71
2018-07-20T21:39:58.989Z,98351.24
2018-07-20T21:42:27.306Z,98354.15
2018-07-20T21:44:55.625Z,98351.62
2018-07-20T21:47:23.960Z,98355.91
2018-07-20T21:49:52.392Z,98354.02
2018-07-20T21:52:20.726Z,98355.55
2018-07-20T21:54:48.991Z,98365.45
2018-07-20T21:57:17.347Z,98365.72
2018-07-20T21:59:45.641Z,98369.39
2018-07-20T22:02:13.963Z,98374.27
2018-07-20T22:04:42.241Z,98377.33
2018-07-20T22:07:10.603Z,98373.98
2018-07-20T22:09:38.888Z,98379.70
2018-07-20T22:12:07.230Z,98378.66
2018-07-20T22:14:35.547Z,98381.61
2018-07-20T22:17:03.949Z,98373.33
2018-07-20T22:19:32.465Z,98374.11
2018-07-20T22:22:00.810Z,98374.94
2018-07-20T22:24:29.206Z,98376.15
2018-07-20T22:26:57.536Z,98382.61
2018-07-20T22:29:25.888Z,98375.52
2018-07-20T22:31:54.239Z,98370.28
2018-07-20T22:34:22.539Z,98374.06
2018-07-20T22:36:50.937Z,98373.23
2018-07-20T22:39:19.273Z,98375.58
2018-07-20T22:41:47.661Z,98372.72
2018-07-20T22:44:16.217Z,98370.88
2018-07-20T22:46:44.527Z,98372.72
2018-07-20T22:49:12.806Z,98376.77
2018-07-20T22:51:41.152Z,98378.83
2018-07-20T22:54:09.483Z,98376.01
2018-07-20T22:56:37.893Z,98373.39
2018-07-20T22:59:06.257Z,98372.20
2018-07-20T23:01:34.661Z,98369.61
2018-07-20T23:04:03.024Z,98366.66
2018-07-20T23:06:31.388Z,98366.66
2018-07-20T23:08:59.711Z,98369.17
2018-07-20T23:11:28.054Z,98366.44
2018-07-20T23:13:56.347Z,98364.57
2018-07-20T23:16:24.674Z,98366.64
2018-07-20T23:18:52.939Z,98367.84
2018-07-20T23:21:21.339Z,98361.19
2018-07-20T23:23:49.646Z,98365.13
2018-07-20T23:26:18.233Z,98373.08
2018-07-20T23:28:46.516Z,98371.57
2018-07-20T23:31:14.936Z,98370.14
2018-07-20T23:33:43.345Z,98370.29
2018-07-20T23:36:11.652Z,98370.92
2018-07-20T23:38:39.977Z,98367.68
2018-07-20T23:41:08.340Z,98369.70
2018-07-20T23:43:36.596Z,98365.14
2018-07-20T23:46:05.034Z,98357.75
2018-07-20T23:48:33.410Z,98362.80
2018-07-20T23:51:01.786Z,98358.34
2018-07-20T23:53:30.070Z,98362.63
2018-07-20T23:55:58.371Z,98363.11
2018-07-20T23:58:26.779Z,98361.87
